createdAt,value
2023-06-28T00:03:17.892Z,74038.75
2023-06-28T00:13:20.796Z,74071.09
2023-06-28T00:23:23.197Z,74091.34
2023-06-28T00:33:29.969Z,74107.53
2023-06-28T00:43:32.204Z,74123.69
2023-06-28T00:53:37.049Z,74143.94
2023-06-28T01:03:42.482Z,74139.88
2023-06-28T01:13:47.818Z,74168.22
2023-06-28T01:23:50.439Z,74178.31
2023-06-28T01:33:55.384Z,74184.38
2023-06-28T01:44:00.173Z,74208.66
2023-06-28T01:54:05.445Z,74218.78
2023-06-28T02:04:10.192Z,74212.72
2023-06-28T02:14:13.144Z,74222.81
2023-06-28T02:24:15.646Z,74212.72
2023-06-28T02:34:22.638Z,74216.75
2023-06-28T02:44:28.853Z,74210.69
2023-06-28T02:54:34.371Z,74220.81
2023-06-28T03:04:41.200Z,74196.53
2023-06-28T03:14:45.533Z,74145.97
2023-06-28T03:24:48.396Z,73984.13
2023-06-28T03:34:54.713Z,73878.94
2023-06-28T03:44:59.121Z,73783.84
2023-06-28T03:55:01.812Z,73749.47
2023-06-28T04:05:06.844Z,73674.63
2023-06-28T04:15:12.238Z,73599.78
2023-06-28T04:25:14.632Z,73537.06
2023-06-28T04:35:18.653Z,73512.81
2023-06-28T04:45:21.754Z,73464.25
2023-06-28T04:55:24.140Z,73419.75
2023-06-28T05:05:26.589Z,73405.59
2023-06-28T05:15:37.109Z,73369.19
2023-06-28T05:25:40.967Z,73440.00
2023-06-28T05:35:46.060Z,73506.72
2023-06-28T05:45:51.758Z,73302.44
2023-06-28T05:55:56.728Z,73245.81
2023-06-28T06:06:03.566Z,73221.53
2023-06-28T06:16:05.955Z,73168.97
2023-06-28T06:26:10.664Z,73075.94
2023-06-28T06:36:16.058Z,73104.25
2023-06-28T06:46:21.593Z,73209.41
2023-06-28T06:56:24.294Z,73049.63
2023-06-28T07:06:29.020Z,72966.72
2023-06-28T07:16:31.325Z,72930.31
2023-06-28T07:26:36.750Z,72926.28
2023-06-28T07:36:41.553Z,72817.06
2023-06-28T07:46:46.143Z,72883.78
2023-06-28T07:56:56.286Z,73003.13
2023-06-28T08:07:01.404Z,72849.41
2023-06-28T08:17:03.956Z,72845.38
2023-06-28T08:27:11.399Z,73003.13
2023-06-28T08:37:19.389Z,73043.56
2023-06-28T08:47:29.321Z,73185.16
2023-06-28T08:57:31.732Z,73294.34
2023-06-28T09:07:37.542Z,73132.56
2023-06-28T09:17:42.914Z,73245.81
2023-06-28T09:27:47.620Z,73304.47
2023-06-28T09:38:12.413Z,73219.53
2023-06-28T09:48:26.093Z,73077.94
2023-06-28T09:58:35.154Z,73086.03
2023-06-28T10:08:39.320Z,73071.88
2023-06-28T10:18:44.845Z,73221.53
2023-06-28T10:28:52.261Z,73142.66
2023-06-28T10:38:55.130Z,73116.38
2023-06-28T10:49:01.840Z,73120.41
2023-06-28T10:59:06.977Z,73223.56
2023-06-28T11:09:17.248Z,73221.53
2023-06-28T11:19:26.339Z,73138.63
2023-06-28T11:29:31.089Z,73146.72
2023-06-28T11:39:34.579Z,73211.44
2023-06-28T11:49:41.745Z,73213.47
2023-06-28T11:59:51.933Z,73221.53
2023-06-28T12:09:59.040Z,73203.34
2023-06-28T12:20:04.814Z,73322.69
2023-06-28T12:30:11.694Z,73500.66
2023-06-28T12:40:17.515Z,73820.25
2023-06-28T12:50:22.339Z,73822.28
2023-06-28T13:00:29.262Z,73787.91
2023-06-28T13:10:32.954Z,73743.41
2023-06-28T13:20:40.485Z,73715.06
2023-06-28T13:30:47.798Z,73662.47
2023-06-28T13:40:52.315Z,73638.22
2023-06-28T13:51:05.562Z,73597.75
2023-06-28T14:01:10.313Z,73549.22
2023-06-28T14:11:20.486Z,73508.75
2023-06-28T14:21:30.185Z,73512.81
2023-06-28T14:31:36.146Z,73508.75
2023-06-28T14:41:53.215Z,73500.66
2023-06-28T14:51:57.814Z,73539.09
2023-06-28T15:02:02.183Z,73543.16
2023-06-28T15:12:11.993Z,73581.56
2023-06-28T15:22:18.442Z,73581.56
2023-06-28T15:32:34.322Z,73597.75
2023-06-28T15:42:42.780Z,73626.06
2023-06-28T15:52:47.447Z,73654.41
2023-06-28T16:02:55.581Z,73644.28
2023-06-28T16:13:06.026Z,73630.13
2023-06-28T16:23:11.393Z,73630.13
2023-06-28T16:33:16.745Z,73654.41
2023-06-28T16:43:24.263Z,73660.47
2023-06-28T16:53:31.769Z,73638.22
2023-06-28T17:03:43.473Z,73658.44
2023-06-28T17:13:50.748Z,73678.66
2023-06-28T17:23:53.732Z,73668.56
2023-06-28T17:33:56.708Z,73690.81
2023-06-28T17:44:01.283Z,73694.84
2023-06-28T17:54:07.609Z,73721.16
2023-06-28T18:04:11.809Z,73749.47
2023-06-28T18:14:14.176Z,73777.78
2023-06-28T18:24:19.075Z,73800.03
2023-06-28T18:34:29.480Z,73816.22
2023-06-28T18:44:34.056Z,73840.50
2023-06-28T18:54:38.676Z,73850.59
2023-06-28T19:04:42.605Z,73872.84
2023-06-28T19:14:47.315Z,73901.19
2023-06-28T19:24:50.295Z,73909.28
2023-06-28T19:34:58.981Z,73905.22
2023-06-28T19:45:14.019Z,73937.59
2023-06-28T19:55:19.307Z,73957.81
2023-06-28T20:05:23.321Z,73969.97
2023-06-28T20:15:27.828Z,73986.13
2023-06-28T20:25:30.280Z,73978.03
2023-06-28T20:35:32.541Z,73988.16
2023-06-28T20:45:36.339Z,74002.31
2023-06-28T20:55:41.621Z,74014.47
2023-06-28T21:05:47.601Z,74026.59
2023-06-28T21:15:52.132Z,74022.56
2023-06-28T21:25:56.658Z,74022.56
2023-06-28T21:35:59.073Z,74016.47
2023-06-28T21:46:01.308Z,74002.31
2023-06-28T21:56:03.716Z,74014.47
2023-06-28T22:06:06.134Z,74012.44
2023-06-28T22:16:15.329Z,74028.63
2023-06-28T22:26:19.889Z,74050.88
2023-06-28T22:36:28.039Z,74071.09
2023-06-28T22:46:34.091Z,74079.19
2023-06-28T22:56:37.760Z,74083.25
2023-06-28T23:06:42.826Z,74091.34
2023-06-28T23:16:45.443Z,74105.50
2023-06-28T23:26:52.656Z,74105.50
2023-06-28T23:36:58.781Z,74115.59
2023-06-28T23:47:03.688Z,74117.63
2023-06-28T23:57:06.331Z,74119.66
